createdAt,value
2018-07-17T00:00:42.163Z,1000.92
2018-07-17T00:01:42.165Z,1000.91
2018-07-17T00:02:42.169Z,1000.90
2018-07-17T00:03:42.178Z,1000.87
2018-07-17T00:04:42.181Z,1000.92
2018-07-17T00:05:42.185Z,1000.91
2018-07-17T00:06:42.193Z,1000.91
2018-07-17T00:07:42.188Z,1000.93
2018-07-17T00:08:42.218Z,1000.91
2018-07-17T00:09:42.253Z,1000.92
2018-07-17T00:10:42.212Z,1000.93
2018-07-17T00:11:42.205Z,1000.92
2018-07-17T00:12:42.270Z,1000.94
2018-07-17T00:13:42.214Z,1000.96
2018-07-17T00:14:42.215Z,1000.93
2018-07-17T00:15:42.228Z,1000.97
2018-07-17T00:16:42.229Z,1000.93
2018-07-17T00:17:42.229Z,1000.98
2018-07-17T00:18:42.237Z,1000.97
2018-07-17T00:19:42.240Z,1001.00
2018-07-17T00:20:42.243Z,1001.00
2018-07-17T00:21:42.252Z,1000.98
2018-07-17T00:22:42.251Z,1000.99
2018-07-17T00:23:42.250Z,1000.99
2018-07-17T00:24:42.258Z,1000.95
2018-07-17T00:25:42.270Z,1000.90
2018-07-17T00:26:42.270Z,1000.95
2018-07-17T00:27:42.272Z,1000.90
2018-07-17T00:28:42.277Z,1000.86
2018-07-17T00:29:42.281Z,1000.90
2018-07-17T00:30:42.286Z,1000.85
2018-07-17T00:31:42.288Z,1000.88
2018-07-17T00:32:42.287Z,1000.89
2018-07-17T00:33:42.291Z,1000.87
2018-07-17T00:34:42.293Z,1000.88
2018-07-17T00:35:42.315Z,1000.95
2018-07-17T00:36:42.312Z,1000.94
2018-07-17T00:37:42.309Z,1000.94
2018-07-17T00:38:42.308Z,1000.96
2018-07-17T00:39:42.317Z,1000.98
2018-07-17T00:40:42.319Z,1001.02
2018-07-17T00:41:42.324Z,1001.02
2018-07-17T00:42:42.329Z,1001.04
2018-07-17T00:43:42.336Z,1001.01
2018-07-17T00:44:42.338Z,1001.01
2018-07-17T00:45:42.331Z,1001.01
2018-07-17T00:46:42.337Z,1000.99
2018-07-17T00:47:42.340Z,1000.98
2018-07-17T00:48:42.345Z,1000.94
2018-07-17T00:49:42.349Z,1000.94
2018-07-17T00:50:42.372Z,1000.94
2018-07-17T00:51:42.360Z,1000.94
2018-07-17T00:52:42.358Z,1000.94
2018-07-17T00:53:42.360Z,1000.92
2018-07-17T00:54:42.364Z,1000.95
2018-07-17T00:55:42.404Z,1000.92
2018-07-17T00:56:42.391Z,1000.92
2018-07-17T00:57:42.383Z,1000.88
2018-07-17T00:58:42.381Z,1000.90
2018-07-17T00:59:42.386Z,1000.91
2018-07-17T01:00:42.391Z,1000.87
2018-07-17T01:01:42.396Z,1000.89
2018-07-17T01:02:42.393Z,1000.92
2018-07-17T01:03:42.422Z,1000.97
2018-07-17T01:04:42.410Z,1000.97
2018-07-17T01:05:42.422Z,1000.98
2018-07-17T01:06:42.414Z,1001.02
2018-07-17T01:07:42.455Z,1001.00
2018-07-17T01:08:42.420Z,1001.03
2018-07-17T01:09:42.424Z,1001.04
2018-07-17T01:10:42.419Z,1001.03
2018-07-17T01:11:42.452Z,1001.02
2018-07-17T01:12:42.428Z,1001.00
2018-07-17T01:13:42.577Z,1001.01
2018-07-17T01:14:42.438Z,1001.01
2018-07-17T01:15:42.448Z,1001.00
2018-07-17T01:16:42.444Z,1001.02
2018-07-17T01:17:42.453Z,1000.99
2018-07-17T01:18:42.457Z,1000.99
2018-07-17T01:19:42.456Z,1001.02
2018-07-17T01:20:42.455Z,1000.95
2018-07-17T01:21:42.457Z,1000.95
2018-07-17T01:22:42.459Z,1000.97
2018-07-17T01:23:42.465Z,1000.94
2018-07-17T01:24:42.467Z,1000.96
2018-07-17T01:25:42.469Z,1000.94
2018-07-17T01:26:42.472Z,1000.94
2018-07-17T01:27:42.478Z,1000.91
2018-07-17T01:28:42.480Z,1000.90
2018-07-17T01:29:42.488Z,1000.90
2018-07-17T01:30:42.498Z,1000.89
2018-07-17T01:31:42.504Z,1000.86
2018-07-17T01:32:42.495Z,1000.88
2018-07-17T01:33:42.498Z,1000.85
2018-07-17T01:34:42.506Z,1000.86
2018-07-17T01:35:42.501Z,1000.86
2018-07-17T01:36:42.508Z,1000.85
2018-07-17T01:37:42.512Z,1000.87
2018-07-17T01:38:42.518Z,1000.89
2018-07-17T01:39:42.529Z,1000.91
2018-07-17T01:40:42.522Z,1000.89
2018-07-17T01:41:42.524Z,1000.90
2018-07-17T01:42:42.548Z,1000.93
2018-07-17T01:43:42.526Z,1000.93
2018-07-17T01:44:42.542Z,1000.92
2018-07-17T01:45:42.534Z,1000.94
2018-07-17T01:46:42.538Z,1000.98
2018-07-17T01:47:42.556Z,1000.91
2018-07-17T01:48:42.541Z,1000.95
2018-07-17T01:49:42.543Z,1000.90
2018-07-17T01:50:42.561Z,1000.93
2018-07-17T01:51:42.558Z,1000.93
2018-07-17T01:52:42.558Z,1000.92
2018-07-17T01:53:42.566Z,1000.91
2018-07-17T01:54:42.568Z,1000.91
2018-07-17T01:55:42.560Z,1000.93
2018-07-17T01:56:42.585Z,1000.93
2018-07-17T01:57:42.568Z,1000.93
2018-07-17T01:58:42.572Z,1000.90
2018-07-17T01:59:42.595Z,1000.88
2018-07-17T02:00:42.576Z,1000.85
2018-07-17T02:01:42.588Z,1000.88
2018-07-17T02:02:42.587Z,1000.87
2018-07-17T02:03:42.588Z,1000.86
2018-07-17T02:04:42.629Z,1000.85
2018-07-17T02:05:42.599Z,1000.88
2018-07-17T02:06:42.610Z,1000.84
2018-07-17T02:07:42.608Z,1000.92
2018-07-17T02:08:42.602Z,1000.94
2018-07-17T02:09:42.607Z,1000.98
2018-07-17T02:10:42.613Z,1000.93
2018-07-17T02:11:42.611Z,1000.93
2018-07-17T02:12:42.621Z,1000.97
2018-07-17T02:13:42.642Z,1000.97
2018-07-17T02:14:42.620Z,1001.00
2018-07-17T02:15:42.621Z,1000.97
2018-07-17T02:16:42.629Z,1000.98
2018-07-17T02:17:42.632Z,1000.98
2018-07-17T02:18:42.663Z,1000.99
2018-07-17T02:19:42.633Z,1001.00
2018-07-17T02:20:42.643Z,1001.03
2018-07-17T02:21:42.658Z,1001.04
2018-07-17T02:22:42.645Z,1001.09
2018-07-17T02:23:42.645Z,1001.07
2018-07-17T02:24:42.652Z,1001.08
2018-07-17T02:25:42.652Z,1001.05
2018-07-17T02:26:42.667Z,1001.03
2018-07-17T02:27:42.665Z,1001.02
2018-07-17T02:28:42.677Z,1001.03
2018-07-17T02:29:42.666Z,1001.04
2018-07-17T02:30:42.672Z,1001.03
2018-07-17T02:31:42.668Z,1001.04
2018-07-17T02:32:42.674Z,1001.05
2018-07-17T02:33:42.678Z,1001.09
2018-07-17T02:34:42.674Z,1001.07
2018-07-17T02:35:42.706Z,1001.09
2018-07-17T02:36:42.679Z,1001.09
2018-07-17T02:37:42.713Z,1001.08
2018-07-17T02:38:42.688Z,1001.12
2018-07-17T02:39:42.709Z,1001.09
2018-07-17T02:40:42.708Z,1001.10
2018-07-17T02:41:42.708Z,1001.10
2018-07-17T02:42:42.694Z,1001.12
2018-07-17T02:43:42.703Z,1001.12
2018-07-17T02:44:42.708Z,1001.13
2018-07-17T02:45:42.717Z,1001.16
2018-07-17T02:46:42.718Z,1001.17
2018-07-17T02:47:42.716Z,1001.18
2018-07-17T02:48:42.717Z,1001.18
2018-07-17T02:49:42.744Z,1001.17
2018-07-17T02:50:42.722Z,1001.19
2018-07-17T02:51:42.745Z,1001.18
2018-07-17T02:52:42.736Z,1001.20
2018-07-17T02:53:42.728Z,1001.20
2018-07-17T02:54:42.759Z,1001.22
2018-07-17T02:55:42.747Z,1001.22
2018-07-17T02:56:42.755Z,1001.23
2018-07-17T02:57:42.748Z,1001.26
2018-07-17T03:17:24.942Z,1001.27
2018-07-17T03:18:24.929Z,1001.28
2018-07-17T03:19:24.925Z,1001.28
2018-07-17T03:20:24.926Z,1001.29
2018-07-17T03:21:24.927Z,1001.30
2018-07-17T03:22:24.924Z,1001.31
2018-07-17T03:23:24.946Z,1001.32
2018-07-17T03:24:24.956Z,1001.32
2018-07-17T03:25:24.924Z,1001.35
2018-07-17T03:26:24.922Z,1001.38
2018-07-17T03:27:24.935Z,1001.34
2018-07-17T03:28:24.923Z,1001.37
2018-07-17T03:29:24.917Z,1001.41
2018-07-17T03:30:24.921Z,1001.41
2018-07-17T03:31:24.928Z,1001.43
2018-07-17T03:32:24.933Z,1001.40
2018-07-17T03:33:24.925Z,1001.43
2018-07-17T03:34:24.925Z,1001.40
2018-07-17T03:35:24.933Z,1001.44
2018-07-17T03:36:24.938Z,1001.46
2018-07-17T03:37:24.932Z,1001.47
2018-07-17T03:38:24.934Z,1001.49
2018-07-17T03:39:24.939Z,1001.51
2018-07-17T03:40:24.937Z,1001.51
2018-07-17T03:41:24.940Z,1001.54
2018-07-17T03:42:24.935Z,1001.51
2018-07-17T03:43:24.943Z,1001.54
2018-07-17T03:44:24.954Z,1001.56
2018-07-17T03:45:24.961Z,1001.53
2018-07-17T03:46:24.943Z,1001.56
2018-07-17T03:47:24.954Z,1001.57
2018-07-17T03:48:24.953Z,1001.57
2018-07-17T03:49:24.956Z,1001.56
2018-07-17T03:50:24.958Z,1001.56
2018-07-17T03:51:24.961Z,1001.59
2018-07-17T03:52:24.960Z,1001.61
2018-07-17T03:53:24.978Z,1001.62
2018-07-17T03:54:24.978Z,1001.62
2018-07-17T03:55:24.994Z,1001.58
2018-07-17T03:56:24.973Z,1001.59
2018-07-17T03:57:24.977Z,1001.59
2018-07-17T03:58:24.980Z,1001.59
2018-07-17T03:59:24.983Z,1001.55
2018-07-17T04:00:24.993Z,1001.59
2018-07-17T04:01:24.986Z,1001.62
2018-07-17T04:02:24.980Z,1001.62
2018-07-17T04:03:24.987Z,1001.65
2018-07-17T04:04:25.095Z,1001.66
2018-07-17T04:05:25.007Z,1001.64
2018-07-17T04:06:24.992Z,1001.69
2018-07-17T04:07:25.017Z,1001.69
2018-07-17T04:08:24.995Z,1001.72
2018-07-17T04:09:24.997Z,1001.71
2018-07-17T04:10:25.009Z,1001.68
2018-07-17T04:11:25.008Z,1001.70
2018-07-17T04:12:25.025Z,1001.65
2018-07-17T04:13:25.063Z,1001.69
2018-07-17T04:14:25.029Z,1001.70
2018-07-17T04:15:25.010Z,1001.68
2018-07-17T04:16:25.012Z,1001.65
2018-07-17T04:17:25.016Z,1001.68
2018-07-17T04:18:25.020Z,1001.66
2018-07-17T04:19:25.019Z,1001.67
2018-07-17T04:20:25.022Z,1001.66
2018-07-17T04:21:25.032Z,1001.67
2018-07-17T04:22:25.039Z,1001.62
2018-07-17T04:23:25.033Z,1001.62
2018-07-17T04:24:25.204Z,1001.62
2018-07-17T04:25:25.057Z,1001.64
2018-07-17T04:26:25.042Z,1001.69
2018-07-17T04:27:25.040Z,1001.67
2018-07-17T04:28:25.049Z,1001.69
2018-07-17T04:29:25.044Z,1001.70
2018-07-17T04:30:25.056Z,1001.72
2018-07-17T04:31:25.075Z,1001.68
2018-07-17T04:32:25.069Z,1001.71
2018-07-17T04:33:25.056Z,1001.74
2018-07-17T04:34:25.054Z,1001.71
2018-07-17T04:35:25.058Z,1001.73
2018-07-17T04:36:25.062Z,1001.68
2018-07-17T04:37:25.081Z,1001.74
2018-07-17T04:38:25.141Z,1001.71
2018-07-17T04:39:25.092Z,1001.73
2018-07-17T04:40:25.072Z,1001.76
2018-07-17T04:41:25.090Z,1001.76
2018-07-17T04:42:25.078Z,1001.78
2018-07-17T04:43:25.090Z,1001.82
2018-07-17T04:44:25.101Z,1001.82
2018-07-17T04:45:25.112Z,1001.83
2018-07-17T04:46:25.106Z,1001.84
2018-07-17T04:47:25.098Z,1001.79
2018-07-17T04:48:25.102Z,1001.80
2018-07-17T04:49:25.101Z,1001.82
2018-07-17T04:50:25.137Z,1001.81
2018-07-17T04:51:25.123Z,1001.82
2018-07-17T04:52:25.127Z,1001.86
2018-07-17T04:53:25.133Z,1001.89
2018-07-17T04:54:25.149Z,1001.90
2018-07-17T04:55:25.129Z,1001.94
2018-07-17T04:56:25.147Z,1001.94
2018-07-17T04:57:25.141Z,1001.97
2018-07-17T04:58:25.145Z,1001.91
2018-07-17T04:59:25.149Z,1001.94
2018-07-17T05:00:25.159Z,1001.91
2018-07-17T05:01:25.194Z,1001.92
2018-07-17T05:02:25.190Z,1001.97
2018-07-17T05:03:25.179Z,1001.94
2018-07-17T05:04:25.193Z,1001.92
2018-07-17T05:05:25.180Z,1001.92
2018-07-17T05:06:25.214Z,1001.93
2018-07-17T05:07:25.200Z,1001.92
2018-07-17T05:08:25.210Z,1001.91
2018-07-17T05:09:25.229Z,1001.92
2018-07-17T05:10:25.244Z,1001.90
2018-07-17T05:11:25.230Z,1001.95
2018-07-17T05:12:25.234Z,1001.98
2018-07-17T05:13:25.302Z,1001.99
2018-07-17T05:14:25.263Z,1002.03
2018-07-17T05:15:25.259Z,1002.07
2018-07-17T05:16:25.335Z,1002.10
2018-07-17T05:17:25.272Z,1002.16
2018-07-17T05:18:25.281Z,1002.20
2018-07-17T05:19:25.318Z,1002.25
2018-07-17T05:20:25.303Z,1002.29
2018-07-17T05:21:25.314Z,1002.25
2018-07-17T05:22:25.319Z,1002.28
2018-07-17T05:23:25.332Z,1002.31
2018-07-17T05:24:25.351Z,1002.33
2018-07-17T05:25:25.368Z,1002.32
2018-07-17T05:27:47.437Z,1002.38
2018-07-17T05:28:47.438Z,1002.34
2018-07-17T05:29:47.448Z,1002.40
2018-07-17T05:30:47.466Z,1002.41
2018-07-17T05:31:47.475Z,1002.46
2018-07-17T05:32:47.485Z,1002.39
2018-07-17T05:33:47.501Z,1002.39
2018-07-17T05:34:47.517Z,1002.35
2018-07-17T05:35:47.528Z,1002.40
2018-07-17T05:36:47.542Z,1002.34
2018-07-17T05:37:47.562Z,1002.46
2018-07-17T05:38:47.597Z,1002.31
2018-07-17T05:39:47.585Z,1002.29
2018-07-17T05:40:47.602Z,1002.31
2018-07-17T05:41:47.616Z,1002.25
2018-07-17T05:42:47.628Z,1002.25
2018-07-17T05:43:47.640Z,1002.21
2018-07-17T05:44:47.659Z,1002.22
2018-07-17T05:45:47.670Z,1002.24
2018-07-17T05:46:47.673Z,1002.29
2018-07-17T05:47:47.689Z,1002.17
2018-07-17T05:48:47.704Z,1002.15
2018-07-17T05:49:47.718Z,1002.12
2018-07-17T05:50:47.728Z,1002.10
2018-07-17T05:51:47.755Z,1002.10
2018-07-17T05:52:47.751Z,1002.24
2018-07-17T05:53:47.758Z,1002.40
2018-07-17T05:54:47.779Z,1002.45
2018-07-17T05:55:47.791Z,1002.40
2018-07-17T05:56:47.810Z,1002.35
2018-07-17T05:57:47.806Z,1002.35
2018-07-17T05:58:47.853Z,1002.34
2018-07-17T05:59:47.824Z,1002.35
2018-07-17T06:00:47.839Z,1002.38
2018-07-17T06:01:47.843Z,1002.32
2018-07-17T06:02:47.858Z,1002.33
2018-07-17T06:03:47.871Z,1002.35
2018-07-17T06:04:47.893Z,1002.32
2018-07-17T06:05:47.907Z,1002.31
2018-07-17T06:06:47.901Z,1002.37
2018-07-17T06:07:47.917Z,1002.35
2018-07-17T06:08:47.917Z,1002.67
2018-07-17T06:09:47.931Z,1003.17
2018-07-17T06:10:47.933Z,1003.28
2018-07-17T06:11:47.947Z,1002.97
2018-07-17T06:12:47.961Z,1002.60
2018-07-17T06:13:47.967Z,1002.58
2018-07-17T06:14:47.984Z,1002.63
2018-07-17T06:15:47.993Z,1002.60
2018-07-17T06:16:48.003Z,1002.56
2018-07-17T06:17:48.013Z,1002.54
2018-07-17T06:18:48.026Z,1002.49
2018-07-17T06:19:48.039Z,1002.49
2018-07-17T06:20:48.047Z,1002.41
2018-07-17T06:21:48.077Z,1002.44
2018-07-17T06:22:48.077Z,1002.46
2018-07-17T06:23:48.085Z,1002.45
2018-07-17T06:24:48.094Z,1002.40
2018-07-17T06:25:48.119Z,1002.40
2018-07-17T06:26:48.115Z,1002.38
2018-07-17T06:27:48.134Z,1002.39
2018-07-17T06:28:48.150Z,1002.39
2018-07-17T06:29:48.152Z,1002.38
2018-07-17T06:30:48.168Z,1002.43
2018-07-17T06:31:48.165Z,1002.34
2018-07-17T06:32:48.181Z,1002.36
2018-07-17T06:33:48.189Z,1002.36
2018-07-17T06:34:48.198Z,1002.35
2018-07-17T06:35:48.207Z,1002.35
2018-07-17T06:36:48.222Z,1002.33
2018-07-17T06:37:48.221Z,1002.35
2018-07-17T06:38:48.241Z,1002.34
2018-07-17T06:39:48.241Z,1002.38
2018-07-17T06:40:48.265Z,1002.37
2018-07-17T06:41:48.256Z,1002.38
2018-07-17T06:42:48.270Z,1002.37
2018-07-17T06:43:48.275Z,1002.39
2018-07-17T06:44:48.283Z,1002.45
2018-07-17T06:45:48.294Z,1002.46
2018-07-17T06:46:48.291Z,1002.42
2018-07-17T06:47:48.303Z,1002.46
2018-07-17T06:48:48.335Z,1002.43
2018-07-17T06:49:48.333Z,1002.46
2018-07-17T06:50:48.394Z,1002.43
2018-07-17T06:51:48.355Z,1002.41
2018-07-17T06:52:48.350Z,1002.41
2018-07-17T06:53:48.365Z,1002.38
2018-07-17T06:54:48.354Z,1002.41
2018-07-17T06:55:48.362Z,1002.42
2018-07-17T06:56:48.387Z,1002.42
2018-07-17T06:57:48.388Z,1002.43
2018-07-17T06:58:48.380Z,1002.45
2018-07-17T06:59:48.387Z,1002.45
2018-07-17T07:00:48.387Z,1002.44
2018-07-17T07:01:48.396Z,1002.44
2018-07-17T07:02:48.409Z,1002.42
2018-07-17T07:03:48.410Z,1002.44
2018-07-17T07:04:48.419Z,1002.45
2018-07-17T07:05:48.425Z,1002.45
2018-07-17T07:06:48.434Z,1002.42
2018-07-17T07:07:48.443Z,1002.41
2018-07-17T07:08:48.463Z,1002.42
2018-07-17T07:09:48.453Z,1002.42
2018-07-17T07:10:48.471Z,1002.42
2018-07-17T07:11:48.462Z,1002.43
2018-07-17T07:12:48.470Z,1002.42
2018-07-17T07:13:48.516Z,1002.41
2018-07-17T07:14:48.481Z,1002.41
2018-07-17T07:15:57.132Z,1002.45
2018-07-17T07:17:41.929Z,1002.42
2018-07-17T07:18:41.892Z,1002.37
2018-07-17T07:19:41.904Z,1002.42
2018-07-17T07:20:41.908Z,1002.42
2018-07-17T07:21:41.928Z,1002.44
2018-07-17T07:22:41.909Z,1002.44
2018-07-17T07:23:41.927Z,1002.43
2018-07-17T07:24:41.923Z,1002.45
2018-07-17T07:25:41.931Z,1002.47
2018-07-17T07:26:41.934Z,1002.43
2018-07-17T07:27:41.941Z,1002.45
2018-07-17T07:28:41.951Z,1002.47
2018-07-17T07:29:41.948Z,1002.47
2018-07-17T07:30:41.960Z,1002.46
2018-07-17T07:33:13.057Z,1002.46
2018-07-17T07:35:24.030Z,1002.47
2018-07-17T07:36:24.028Z,1002.44
2018-07-17T07:37:24.084Z,1002.44
2018-07-17T07:38:24.041Z,1002.44
2018-07-17T07:39:24.054Z,1002.47
2018-07-17T07:40:24.060Z,1002.41
2018-07-17T07:41:24.057Z,1002.41
2018-07-17T07:42:24.056Z,1002.35
2018-07-17T07:43:24.080Z,1002.41
2018-07-17T07:44:24.078Z,1002.38
2018-07-17T07:45:24.083Z,1002.37
2018-07-17T07:46:24.081Z,1002.40
2018-07-17T07:47:24.086Z,1002.38
2018-07-17T07:48:24.093Z,1002.40
2018-07-17T07:49:24.102Z,1002.43
2018-07-17T07:50:24.102Z,1002.40
2018-07-17T07:51:24.108Z,1002.38
2018-07-17T07:52:24.110Z,1002.42
2018-07-17T07:53:24.121Z,1002.38
2018-07-17T07:54:24.135Z,1002.36
2018-07-17T07:55:24.133Z,1002.38
2018-07-17T07:56:24.133Z,1002.37
2018-07-17T07:57:24.150Z,1002.39
2018-07-17T07:58:24.145Z,1002.43
2018-07-17T07:59:24.152Z,1002.43
2018-07-17T08:00:24.163Z,1002.44
2018-07-17T08:01:24.167Z,1002.45
2018-07-17T08:02:24.169Z,1002.42
2018-07-17T08:03:24.176Z,1002.40
2018-07-17T08:04:24.177Z,1002.41
2018-07-17T08:05:24.195Z,1002.40
2018-07-17T08:06:24.195Z,1002.43
2018-07-17T08:07:24.204Z,1002.41
2018-07-17T08:08:24.203Z,1002.41
2018-07-17T08:09:24.211Z,1002.41
2018-07-17T08:10:24.211Z,1002.40
2018-07-17T08:11:24.221Z,1002.42
2018-07-17T08:12:24.232Z,1002.44
2018-07-17T08:13:24.227Z,1002.40
2018-07-17T08:14:24.241Z,1002.38
2018-07-17T08:15:24.266Z,1002.44
2018-07-17T08:16:24.255Z,1002.44
2018-07-17T08:17:24.277Z,1002.44
2018-07-17T08:18:24.265Z,1002.44
2018-07-17T08:19:24.269Z,1002.42
2018-07-17T08:20:24.271Z,1002.43
2018-07-17T08:21:24.279Z,1002.47
2018-07-17T08:22:24.289Z,1002.48
2018-07-17T08:23:24.296Z,1002.45
2018-07-17T08:24:24.334Z,1002.47
2018-07-17T08:25:24.302Z,1002.45
2018-07-17T08:26:24.333Z,1002.44
2018-07-17T08:27:24.317Z,1002.43
2018-07-17T08:28:24.327Z,1002.40
2018-07-17T08:29:24.349Z,1002.46
2018-07-17T08:30:24.337Z,1002.47
2018-07-17T08:31:24.337Z,1002.47
2018-07-17T08:32:24.345Z,1002.41
2018-07-17T08:33:24.356Z,1002.47
2018-07-17T08:34:24.356Z,1002.44
2018-07-17T08:35:24.357Z,1002.38
2018-07-17T08:36:24.371Z,1002.45
2018-07-17T08:37:24.371Z,1002.45
2018-07-17T08:38:24.383Z,1002.45
2018-07-17T08:39:24.405Z,1002.43
2018-07-17T08:40:24.398Z,1002.45
2018-07-17T08:41:24.400Z,1002.47
2018-07-17T08:42:24.407Z,1002.48
2018-07-17T08:43:24.456Z,1002.42
2018-07-17T08:44:24.420Z,1002.45
2018-07-17T08:45:24.422Z,1002.45
2018-07-17T08:46:24.432Z,1002.48
2018-07-17T08:47:24.434Z,1002.45
2018-07-17T08:48:24.439Z,1002.46
2018-07-17T08:49:24.446Z,1002.49
2018-07-17T08:50:24.448Z,1002.48
2018-07-17T08:51:24.510Z,1002.50
2018-07-17T08:52:24.465Z,1002.51
2018-07-17T08:53:24.472Z,1002.49
2018-07-17T08:54:24.512Z,1002.50
2018-07-17T08:55:24.495Z,1002.47
2018-07-17T08:56:24.500Z,1002.47
2018-07-17T08:57:24.502Z,1002.52
2018-07-17T08:58:24.493Z,1002.49
2018-07-17T08:59:24.512Z,1002.50
2018-07-17T09:00:24.602Z,1002.52
2018-07-17T09:01:24.513Z,1002.51
2018-07-17T09:02:24.529Z,1002.52
2018-07-17T09:03:24.537Z,1002.53
2018-07-17T09:04:24.535Z,1002.50
2018-07-17T09:05:24.547Z,1002.51
2018-07-17T09:06:24.556Z,1002.53
2018-07-17T09:07:24.578Z,1002.51
2018-07-17T09:08:24.559Z,1002.54
2018-07-17T09:09:24.591Z,1002.51
2018-07-17T09:10:24.584Z,1002.53
2018-07-17T09:11:24.596Z,1002.49
2018-07-17T09:12:24.619Z,1002.52
2018-07-17T09:13:24.634Z,1002.52
2018-07-17T09:14:24.612Z,1002.51
2018-07-17T09:15:25.219Z,1002.50
2018-07-17T09:16:24.628Z,1002.55
2018-07-17T09:17:24.651Z,1002.57
2018-07-17T09:18:24.637Z,1002.52
2018-07-17T09:19:24.637Z,1002.57
2018-07-17T09:20:24.648Z,1002.54
2018-07-17T09:21:24.673Z,1002.57
2018-07-17T09:22:24.709Z,1002.59
2018-07-17T09:23:24.708Z,1002.58
2018-07-17T09:24:24.731Z,1002.60
2018-07-17T09:25:24.683Z,1002.58
2018-07-17T09:26:24.698Z,1002.57
2018-07-17T09:27:24.688Z,1002.59
2018-07-17T09:28:24.873Z,1002.65
2018-07-17T09:29:24.704Z,1002.67
2018-07-17T09:30:24.705Z,1002.66
2018-07-17T09:31:24.714Z,1002.67
2018-07-17T09:32:24.720Z,1002.67
2018-07-17T09:33:24.728Z,1002.60
2018-07-17T09:34:24.732Z,1002.63
2018-07-17T09:35:24.940Z,1002.64
2018-07-17T09:36:24.755Z,1002.63
2018-07-17T09:37:25.013Z,1002.64
2018-07-17T09:38:24.759Z,1002.58
2018-07-17T09:39:24.773Z,1002.62
2018-07-17T09:40:24.793Z,1002.59
2018-07-17T09:42:47.605Z,1002.61
2018-07-17T09:43:47.607Z,1002.59
2018-07-17T09:44:47.610Z,1002.61
2018-07-17T09:45:47.609Z,1002.65
2018-07-17T09:46:47.624Z,1002.61
2018-07-17T09:47:47.631Z,1002.60
2018-07-17T09:48:47.634Z,1002.62
2018-07-17T09:49:47.648Z,1002.64
2018-07-17T09:50:47.660Z,1002.63
2018-07-17T09:51:47.655Z,1002.66
2018-07-17T09:52:47.658Z,1002.65
2018-07-17T09:53:47.667Z,1002.64
2018-07-17T09:54:47.682Z,1002.62
2018-07-17T09:55:47.709Z,1002.64
2018-07-17T09:56:47.708Z,1002.66
2018-07-17T09:57:47.737Z,1002.66
2018-07-17T09:58:47.700Z,1002.67
2018-07-17T09:59:47.723Z,1002.66
2018-07-17T10:00:47.719Z,1002.61
2018-07-17T10:01:47.725Z,1002.63
2018-07-17T10:02:47.728Z,1002.66
2018-07-17T10:03:47.756Z,1002.62
2018-07-17T10:04:47.809Z,1002.65
2018-07-17T10:05:47.744Z,1002.65
2018-07-17T10:06:47.752Z,1002.59
2018-07-17T10:07:47.766Z,1002.61
2018-07-17T10:08:47.772Z,1002.59
2018-07-17T10:09:47.781Z,1002.61
2018-07-17T10:10:47.792Z,1002.61
2018-07-17T10:11:47.794Z,1002.65
2018-07-17T10:12:47.802Z,1002.61
2018-07-17T10:13:47.808Z,1002.62
2018-07-17T10:14:47.816Z,1002.67
2018-07-17T10:15:47.828Z,1002.58
2018-07-17T10:16:47.833Z,1002.58
2018-07-17T10:17:47.849Z,1002.60
2018-07-17T10:18:47.848Z,1002.56
2018-07-17T10:19:47.922Z,1002.60
2018-07-17T10:20:47.863Z,1002.58
2018-07-17T10:21:47.866Z,1002.61
2018-07-17T10:22:47.877Z,1002.57
2018-07-17T10:23:47.880Z,1002.53
2018-07-17T10:24:47.885Z,1002.51
2018-07-17T10:25:47.901Z,1002.55
2018-07-17T10:26:47.957Z,1002.56
2018-07-17T10:27:47.919Z,1002.56
2018-07-17T10:28:47.937Z,1002.56
2018-07-17T10:29:47.935Z,1002.59
2018-07-17T10:30:47.968Z,1002.55
2018-07-17T10:31:47.935Z,1002.54
2018-07-17T10:32:47.956Z,1002.54
2018-07-17T10:33:47.969Z,1002.53
2018-07-17T10:34:47.956Z,1002.52
2018-07-17T10:35:47.971Z,1002.52
2018-07-17T10:36:47.977Z,1002.52
2018-07-17T10:37:47.984Z,1002.48
2018-07-17T10:38:48.014Z,1002.50
2018-07-17T10:39:48.015Z,1002.46
2018-07-17T10:40:48.009Z,1002.46
2018-07-17T10:41:48.025Z,1002.45
2018-07-17T10:42:48.022Z,1002.44
2018-07-17T10:43:48.041Z,1002.41
2018-07-17T10:44:48.040Z,1002.39
2018-07-17T10:45:48.058Z,1002.40
2018-07-17T10:46:48.048Z,1002.41
2018-07-17T10:47:48.089Z,1002.40
2018-07-17T10:48:48.068Z,1002.42
2018-07-17T10:49:48.077Z,1002.34
2018-07-17T10:50:48.080Z,1002.41
2018-07-17T10:51:48.087Z,1002.33
2018-07-17T10:52:48.096Z,1002.32
2018-07-17T10:53:48.107Z,1002.33
2018-07-17T10:54:48.117Z,1002.35
2018-07-17T10:55:48.125Z,1002.32
2018-07-17T10:56:48.139Z,1002.32
2018-07-17T10:57:48.127Z,1002.25
2018-07-17T10:58:48.141Z,1002.31
2018-07-17T10:59:48.166Z,1002.30
2018-07-17T11:00:48.164Z,1002.26
2018-07-17T11:01:48.180Z,1002.20
2018-07-17T11:02:48.189Z,1002.32
2018-07-17T11:03:48.180Z,1002.30
2018-07-17T11:04:48.199Z,1002.31
2018-07-17T11:05:48.198Z,1002.26
2018-07-17T11:06:48.207Z,1002.29
2018-07-17T11:07:48.212Z,1002.24
2018-07-17T11:08:48.213Z,1002.25
2018-07-17T11:09:48.231Z,1002.24
2018-07-17T11:10:48.241Z,1002.28
2018-07-17T11:11:48.261Z,1002.23
2018-07-17T11:12:48.275Z,1002.22
2018-07-17T11:13:48.254Z,1002.28
2018-07-17T11:14:48.260Z,1002.23
2018-07-17T11:15:48.293Z,1002.21
2018-07-17T11:16:48.289Z,1002.19
2018-07-17T11:17:48.307Z,1002.21
2018-07-17T11:18:48.306Z,1002.22
2018-07-17T11:19:48.304Z,1002.17
2018-07-17T11:20:48.315Z,1002.20
2018-07-17T11:21:48.317Z,1002.20
2018-07-17T11:22:48.331Z,1002.21
2018-07-17T11:23:48.331Z,1002.26
2018-07-17T11:24:48.346Z,1002.25
2018-07-17T11:25:48.358Z,1002.18
2018-07-17T11:26:48.370Z,1002.21
2018-07-17T11:27:48.380Z,1002.16
2018-07-17T11:28:48.374Z,1002.22
2018-07-17T11:29:48.384Z,1002.17
2018-07-17T11:30:48.387Z,1002.17
2018-07-17T11:31:48.410Z,1002.19
2018-07-17T11:32:48.441Z,1002.12
2018-07-17T11:33:48.413Z,1002.12
2018-07-17T11:34:48.424Z,1002.13
2018-07-17T11:35:48.432Z,1002.13
2018-07-17T11:36:48.443Z,1002.06
2018-07-17T11:37:48.472Z,1002.12
2018-07-17T11:38:48.519Z,1002.07
2018-07-17T11:39:48.482Z,1002.01
2018-07-17T11:40:48.469Z,1002.02
2018-07-17T11:41:48.497Z,1002.06
2018-07-17T11:42:48.504Z,1002.04
2018-07-17T11:43:48.499Z,1002.01
2018-07-17T11:44:48.510Z,1002.02
2018-07-17T11:45:48.573Z,1001.96
2018-07-17T11:46:48.538Z,1001.93
2018-07-17T11:47:48.577Z,1001.86
2018-07-17T11:48:48.539Z,1001.90
2018-07-17T11:49:48.549Z,1001.88
2018-07-17T11:50:48.549Z,1001.89
2018-07-17T11:51:48.554Z,1001.90
2018-07-17T11:52:48.574Z,1001.88
2018-07-17T11:53:48.579Z,1001.88
2018-07-17T11:54:48.595Z,1001.83
2018-07-17T11:55:48.593Z,1001.82
2018-07-17T11:56:48.640Z,1001.84
2018-07-17T11:57:48.611Z,1001.82
2018-07-17T11:58:48.629Z,1001.85
2018-07-17T11:59:48.622Z,1001.83
2018-07-17T12:00:48.628Z,1001.85
2018-07-17T12:01:48.636Z,1001.83
2018-07-17T12:02:48.649Z,1001.79
2018-07-17T12:03:48.659Z,1001.78
2018-07-17T12:04:48.681Z,1001.82
2018-07-17T12:05:48.687Z,1001.85
2018-07-17T12:06:48.710Z,1001.83
2018-07-17T12:07:48.689Z,1001.85
2018-07-17T12:08:48.697Z,1001.88
2018-07-17T12:09:48.705Z,1001.89
2018-07-17T12:10:48.717Z,1001.85
2018-07-17T12:11:48.719Z,1001.87
2018-07-17T12:12:48.859Z,1001.87
2018-07-17T12:13:48.739Z,1001.82
2018-07-17T12:14:48.809Z,1001.81
2018-07-17T12:15:48.762Z,1001.77
2018-07-17T12:16:48.783Z,1001.79
2018-07-17T12:17:48.766Z,1001.84
2018-07-17T12:18:48.782Z,1001.87
2018-07-17T12:19:48.878Z,1001.81
2018-07-17T12:20:48.814Z,1001.80
2018-07-17T12:21:48.804Z,1001.78
2018-07-17T12:22:48.821Z,1001.76
2018-07-17T12:23:48.856Z,1001.65
2018-07-17T12:24:48.847Z,1001.69
2018-07-17T12:25:48.842Z,1001.67
2018-07-17T12:26:48.852Z,1001.66
2018-07-17T12:27:48.857Z,1001.62
2018-07-17T12:28:48.889Z,1001.64
2018-07-17T12:29:48.890Z,1001.70
2018-07-17T12:30:48.920Z,1001.63